Time;durP1;ratioP1;P1;durP2;ratioP2;P2;SDS_P1;SDS_P2;PMS_P1;PMS_P2;Temp;Humidity;BMP_temperature;BMP_pressure;BME280_temperature;BME280_humidity;BME280_pressure;Samples;Min_cycle;Max_cycle;Signal;HPM_P1;HPM_P2
2023/11/28 00:01:20;;;;;;;7.40;6.70;;;3.50;92.60;;;;;;5132476;27;20011;-36
2023/11/28 00:03:46;;;;;;;7.80;7.00;;;3.50;92.60;;;;;;5132338;27;20023;-35
2023/11/28 00:06:16;;;;;;;6.45;5.80;;;3.40;92.50;;;;;;5132623;27;20019;-37
2023/11/28 00:08:41;;;;;;;6.35;5.72;;;3.40;92.60;;;;;;5132253;27;20011;-36
2023/11/28 00:11:08;;;;;;;9.13;7.80;;;3.50;92.80;;;;;;5132363;27;20015;-35
2023/11/28 00:13:33;;;;;;;7.75;6.63;;;3.40;92.60;;;;;;5132222;27;20011;-34
2023/11/28 00:15:59;;;;;;;7.90;7.10;;;3.40;92.60;;;;;;5132377;27;20049;-35
2023/11/28 00:18:24;;;;;;;8.55;7.32;;;3.40;92.50;;;;;;5132136;27;20024;-35
2023/11/28 00:20:50;;;;;;;7.85;7.05;;;3.40;92.50;;;;;;5132205;27;20019;-30
2023/11/28 00:23:16;;;;;;;7.70;6.55;;;3.30;92.60;;;;;;5132468;27;20054;-31
2023/11/28 00:25:41;;;;;;;7.55;6.78;;;3.30;92.60;;;;;;5131909;27;20106;-31
2023/11/28 00:28:07;;;;;;;7.90;6.90;;;3.30;92.60;;;;;;5132518;27;20046;-33
2023/11/28 00:30:33;;;;;;;7.25;6.55;;;3.30;92.50;;;;;;5133587;27;20091;-31
2023/11/28 00:32:58;;;;;;;6.68;5.82;;;3.30;92.50;;;;;;5136821;27;20019;-32
2023/11/28 00:35:24;;;;;;;6.53;5.82;;;3.30;92.40;;;;;;5136050;27;20090;-32
2023/11/28 00:37:49;;;;;;;6.35;5.68;;;3.30;92.40;;;;;;5136643;27;20022;-31
2023/11/28 00:40:15;;;;;;;6.43;5.53;;;3.30;92.50;;;;;;5136267;27;20012;-32
2023/11/28 00:42:40;;;;;;;6.38;5.50;;;3.30;92.50;;;;;;5136185;27;20471;-31
2023/11/28 00:45:07;;;;;;;6.05;5.45;;;3.30;92.40;;;;;;5136397;27;20051;-33
2023/11/28 00:47:34;;;;;;;6.18;5.50;;;3.30;92.40;;;;;;5135961;27;20038;-31
2023/11/28 00:49:59;;;;;;;5.55;4.97;;;3.30;92.30;;;;;;5136095;27;20029;-31
2023/11/28 00:52:25;;;;;;;5.88;5.28;;;3.30;92.40;;;;;;5135726;27;20027;-31
2023/11/28 00:54:50;;;;;;;6.95;5.10;;;3.30;92.40;;;;;;5135874;27;20043;-32
2023/11/28 00:57:16;;;;;;;6.88;5.68;;;3.30;92.40;;;;;;5135678;27;20026;-32
2023/11/28 00:59:42;;;;;;;6.95;6.22;;;3.20;92.30;;;;;;5135816;27;20122;-32
2023/11/28 01:02:08;;;;;;;6.60;5.75;;;3.20;92.10;;;;;;5135736;27;20046;-33
2023/11/28 01:04:34;;;;;;;5.82;5.20;;;3.20;92.20;;;;;;5135947;27;20026;-32
2023/11/28 01:07:01;;;;;;;6.80;5.90;;;3.10;92.00;;;;;;5135457;27;20015;-33
2023/11/28 01:09:26;;;;;;;6.90;5.47;;;3.10;92.00;;;;;;5135706;27;20391;-33
2023/11/28 01:11:52;;;;;;;6.75;5.68;;;3.10;92.10;;;;;;5135497;27;20019;-33
2023/11/28 01:14:18;;;;;;;6.50;5.30;;;3.10;92.20;;;;;;5135599;27;20482;-33
2023/11/28 01:16:46;;;;;;;6.78;5.78;;;3.10;92.30;;;;;;5135484;27;20012;-32
2023/11/28 01:19:12;;;;;;;6.50;5.20;;;3.10;92.30;;;;;;5135380;27;20023;-33
2023/11/28 01:21:38;;;;;;;6.13;4.97;;;3.10;92.30;;;;;;5135272;27;20030;-32
2023/11/28 01:24:04;;;;;;;5.97;5.38;;;3.10;92.10;;;;;;5135462;27;20019;-32
2023/11/28 01:26:29;;;;;;;5.45;4.72;;;3.10;92.10;;;;;;5135220;27;20031;-32
2023/11/28 01:28:55;;;;;;;5.88;5.10;;;3.10;92.10;;;;;;5133945;27;20040;-32
2023/11/28 01:31:24;;;;;;;6.05;4.68;;;3.10;92.00;;;;;;5135011;27;20410;-31
2023/11/28 01:33:50;;;;;;;6.38;5.45;;;3.10;92.10;;;;;;5135239;27;20475;-31
2023/11/28 01:36:15;;;;;;;6.43;5.45;;;3.10;92.10;;;;;;5134932;27;20027;-32
2023/11/28 01:38:41;;;;;;;6.68;5.38;;;3.10;92.20;;;;;;5135016;27;20015;-33
2023/11/28 01:41:08;;;;;;;7.70;5.78;;;3.10;92.10;;;;;;5134781;27;20053;-32
2023/11/28 01:43:34;;;;;;;6.13;5.18;;;3.10;92.10;;;;;;5135363;27;20023;-32
2023/11/28 01:46:03;;;;;;;6.75;5.30;;;3.10;92.00;;;;;;5135136;27;20097;-33
2023/11/28 01:48:29;;;;;;;7.25;5.43;;;3.10;92.00;;;;;;5134811;27;20114;-35
2023/11/28 01:50:55;;;;;;;6.40;5.38;;;3.10;92.00;;;;;;5134925;27;20058;-31
2023/11/28 01:53:21;;;;;;;6.35;5.20;;;3.10;91.80;;;;;;5134855;27;20023;-32
2023/11/28 01:55:47;;;;;;;6.05;5.15;;;3.00;91.70;;;;;;5134684;27;20023;-33
2023/11/28 01:58:13;;;;;;;6.40;5.30;;;3.00;91.80;;;;;;5134579;27;20023;-31
2023/11/28 02:00:39;;;;;;;7.20;5.40;;;3.00;91.80;;;;;;5134480;27;20011;-32
2023/11/28 02:03:07;;;;;;;6.97;5.65;;;3.00;91.80;;;;;;5134382;27;20023;-32
2023/11/28 02:05:33;;;;;;;6.95;6.00;;;2.90;91.80;;;;;;5133261;27;20027;-31
2023/11/28 02:08:01;;;;;;;6.40;4.95;;;2.90;91.80;;;;;;5134782;27;20030;-32
2023/11/28 02:10:27;;;;;;;6.15;5.55;;;2.90;91.80;;;;;;5134679;27;20019;-32
2023/11/28 02:12:52;;;;;;;7.32;5.68;;;2.90;91.70;;;;;;5134327;27;20023;-33
2023/11/28 02:15:44;;;;;;;7.50;5.88;;;2.90;91.70;;;;;;5134468;27;20022;-32
2023/11/28 02:18:10;;;;;;;8.18;6.35;;;2.80;91.70;;;;;;5134110;27;20359;-32
2023/11/28 02:20:37;;;;;;;6.82;6.00;;;2.80;91.60;;;;;;5134415;27;20382;-32
2023/11/28 02:23:03;;;;;;;6.57;5.75;;;2.80;91.60;;;;;;5134373;27;20026;-33
2023/11/28 02:25:33;;;;;;;6.95;6.25;;;2.80;91.60;;;;;;5134297;27;20023;-33
2023/11/28 02:27:59;;;;;;;8.75;6.15;;;2.80;91.70;;;;;;5133991;27;20019;-33
2023/11/28 02:30:24;;;;;;;7.30;5.97;;;2.80;91.80;;;;;;5134181;27;20057;-32
2023/11/28 02:32:50;;;;;;;7.50;5.80;;;2.80;91.70;;;;;;5134323;27;20377;-32
2023/11/28 02:35:15;;;;;;;8.50;5.85;;;2.80;91.80;;;;;;5134081;27;20080;-32
2023/11/28 02:37:41;;;;;;;6.55;5.65;;;2.80;91.80;;;;;;5133693;27;20023;-32
2023/11/28 02:40:07;;;;;;;6.57;5.85;;;2.90;91.80;;;;;;5133913;27;20026;-33
2023/11/28 02:42:33;;;;;;;8.43;6.45;;;2.90;91.80;;;;;;5133671;27;20102;-32
2023/11/28 02:44:58;;;;;;;8.98;6.70;;;2.90;91.70;;;;;;5134033;27;20454;-33
2023/11/28 02:47:24;;;;;;;6.85;6.13;;;2.90;91.80;;;;;;5133444;27;20016;-30
2023/11/28 02:49:49;;;;;;;7.18;6.00;;;2.90;91.60;;;;;;5133947;27;20050;-33
2023/11/28 02:52:15;;;;;;;7.80;6.57;;;2.90;91.70;;;;;;5133461;27;20023;-33
2023/11/28 02:54:40;;;;;;;7.65;6.35;;;2.90;91.70;;;;;;5133141;27;20024;-39
2023/11/28 02:57:06;;;;;;;11.63;7.78;;;2.90;91.70;;;;;;5133601;27;20840;-32
2023/11/28 02:59:32;;;;;;;10.15;7.32;;;2.90;91.40;;;;;;5133667;27;20027;-33
2023/11/28 03:01:57;;;;;;;9.43;7.68;;;2.90;91.40;;;;;;5133184;27;20383;-32
2023/11/28 03:04:23;;;;;;;9.60;7.32;;;2.90;91.50;;;;;;5133412;27;20482;-33
2023/11/28 03:06:49;;;;;;;9.35;7.45;;;2.90;91.50;;;;;;5133309;27;20023;-34
2023/11/28 03:09:14;;;;;;;9.40;8.23;;;2.90;91.40;;;;;;5133401;27;20027;-31
2023/11/28 03:11:40;;;;;;;8.82;7.20;;;2.90;91.40;;;;;;5133259;27;20023;-32
2023/11/28 03:14:06;;;;;;;10.73;7.45;;;2.90;91.30;;;;;;5133263;27;20040;-31
2023/11/28 03:16:31;;;;;;;7.07;6.13;;;2.80;91.40;;;;;;5133188;27;20021;-32
2023/11/28 03:18:57;;;;;;;10.02;6.93;;;2.80;91.10;;;;;;5131533;27;20471;-32
2023/11/28 03:21:23;;;;;;;8.60;6.43;;;2.80;90.90;;;;;;5133239;27;20520;-32
2023/11/28 03:23:48;;;;;;;8.95;7.07;;;2.80;91.10;;;;;;5133048;27;20057;-32
2023/11/28 03:26:14;;;;;;;7.60;5.93;;;2.80;90.90;;;;;;5132858;27;20091;-33
2023/11/28 03:28:39;;;;;;;8.75;6.40;;;2.80;90.70;;;;;;5131585;27;20023;-33
2023/11/28 03:31:05;;;;;;;7.43;6.20;;;2.70;90.60;;;;;;5132779;27;20543;-33
2023/11/28 03:33:32;;;;;;;8.10;5.15;;;2.70;90.50;;;;;;5132962;27;20079;-33
2023/11/28 03:35:58;;;;;;;8.65;5.43;;;2.70;90.30;;;;;;5132842;27;20031;-33
2023/11/28 03:38:23;;;;;;;7.30;5.45;;;2.60;90.50;;;;;;5132503;27;20023;-33
2023/11/28 03:40:49;;;;;;;5.93;4.80;;;2.60;90.50;;;;;;5133139;27;20026;-33
2023/11/28 03:43:15;;;;;;;6.50;4.32;;;2.60;90.50;;;;;;5132607;27;20019;-33
2023/11/28 03:45:40;;;;;;;6.85;4.22;;;2.50;90.40;;;;;;5132903;27;20491;-33
2023/11/28 03:48:06;;;;;;;5.40;4.13;;;2.50;90.40;;;;;;5132401;27;20050;-33
2023/11/28 03:50:31;;;;;;;5.20;3.97;;;2.50;90.20;;;;;;5132581;27;20015;-33
2023/11/28 03:52:57;;;;;;;5.40;3.63;;;2.40;90.10;;;;;;5132608;27;20023;-34
2023/11/28 03:55:23;;;;;;;5.97;3.65;;;2.30;89.80;;;;;;5132633;27;20027;-32
2023/11/28 03:57:49;;;;;;;5.13;3.55;;;2.10;89.80;;;;;;5132300;27;20242;-33
2023/11/28 04:00:14;;;;;;;4.28;2.80;;;2.10;89.80;;;;;;5132698;27;20043;-33
2023/11/28 04:02:40;;;;;;;4.90;3.20;;;2.00;90.00;;;;;;5132457;27;20051;-32
2023/11/28 04:05:08;;;;;;;5.32;3.10;;;1.90;90.10;;;;;;5131742;27;20489;-30
2023/11/28 04:07:34;;;;;;;5.57;2.90;;;1.80;89.90;;;;;;5132164;27;20031;-31
2023/11/28 04:10:00;;;;;;;3.75;2.75;;;1.70;89.90;;;;;;5131014;27;20019;-31
2023/11/28 04:12:26;;;;;;;4.55;2.45;;;1.60;89.90;;;;;;5132262;27;20356;-32
2023/11/28 04:14:52;;;;;;;4.53;2.78;;;1.60;90.10;;;;;;5131173;27;20031;-32
2023/11/28 04:17:17;;;;;;;4.07;2.42;;;1.60;90.10;;;;;;5132142;27;20031;-33
2023/11/28 04:19:43;;;;;;;4.57;2.60;;;1.60;90.10;;;;;;5132233;27;20024;-31
2023/11/28 04:22:11;;;;;;;3.05;2.30;;;1.50;90.00;;;;;;5132551;27;20030;-32
2023/11/28 04:24:37;;;;;;;3.28;2.20;;;1.40;89.20;;;;;;5132363;27;20034;-32
2023/11/28 04:27:04;;;;;;;2.70;2.15;;;1.40;89.40;;;;;;5132097;27;20027;-32
2023/11/28 04:29:29;;;;;;;3.47;2.15;;;1.40;89.80;;;;;;5132540;27;20382;-32
2023/11/28 04:31:55;;;;;;;2.95;2.00;;;1.30;89.80;;;;;;5131815;27;20043;-32
2023/11/28 04:34:21;;;;;;;2.60;1.88;;;1.30;89.80;;;;;;5132148;27;20367;-32
2023/11/28 04:36:46;;;;;;;3.60;1.92;;;1.30;89.70;;;;;;5131893;27;20019;-32
2023/11/28 04:39:12;;;;;;;2.30;1.90;;;1.20;89.60;;;;;;5132161;27;20091;-31
2023/11/28 04:41:37;;;;;;;2.33;1.80;;;1.20;89.60;;;;;;5131911;27;20075;-32
2023/11/28 04:44:03;;;;;;;2.78;2.03;;;1.20;89.90;;;;;;5132169;27;20023;-31
2023/11/28 04:46:29;;;;;;;2.20;2.00;;;1.20;89.90;;;;;;5131980;27;20469;-31
2023/11/28 04:48:55;;;;;;;2.30;1.98;;;1.20;90.00;;;;;;5131611;27;20026;-32
2023/11/28 04:51:20;;;;;;;2.38;2.05;;;1.20;90.00;;;;;;5132063;27;20027;-32
2023/11/28 04:53:46;;;;;;;2.60;2.20;;;1.20;90.00;;;;;;5131747;27;20038;-32
2023/11/28 04:56:11;;;;;;;2.88;2.15;;;1.10;90.00;;;;;;5131712;27;20023;-31
2023/11/28 04:58:37;;;;;;;3.85;2.00;;;1.10;90.10;;;;;;5131618;27;20442;-33
2023/11/28 05:01:06;;;;;;;2.63;2.25;;;1.10;90.20;;;;;;5131953;27;20027;-33
2023/11/28 05:03:31;;;;;;;3.28;2.20;;;1.10;90.20;;;;;;5131682;27;20042;-32
2023/11/28 05:05:57;;;;;;;2.30;2.10;;;1.10;90.30;;;;;;5132118;27;20390;-32
2023/11/28 05:08:22;;;;;;;3.55;2.30;;;1.10;90.30;;;;;;5130287;28;20027;-32
2023/11/28 05:10:48;;;;;;;3.00;2.55;;;1.10;90.40;;;;;;5131849;27;20052;-33
2023/11/28 05:13:13;;;;;;;3.20;2.38;;;1.10;90.40;;;;;;5131640;27;20418;-32
2023/11/28 05:15:39;;;;;;;2.67;2.45;;;1.10;90.50;;;;;;5132014;27;20031;-32
2023/11/28 05:18:05;;;;;;;2.95;2.38;;;1.10;90.50;;;;;;5135005;27;20047;-32
2023/11/28 05:20:31;;;;;;;2.80;2.33;;;1.20;90.60;;;;;;5134121;27;20023;-33
2023/11/28 05:22:56;;;;;;;3.20;2.75;;;1.20;90.60;;;;;;5135389;27;20529;-31
2023/11/28 05:25:22;;;;;;;4.00;2.65;;;1.20;90.60;;;;;;5135657;27;20512;-33
2023/11/28 05:27:47;;;;;;;3.45;2.50;;;1.20;90.60;;;;;;5135229;27;20023;-33
2023/11/28 05:30:13;;;;;;;3.60;3.05;;;1.20;90.60;;;;;;5135432;27;20490;-32
2023/11/28 05:32:39;;;;;;;3.70;2.72;;;1.30;90.70;;;;;;5135136;27;20031;-33
2023/11/28 05:35:05;;;;;;;3.20;2.70;;;1.30;90.70;;;;;;5135297;27;20032;-32
2023/11/28 05:37:30;;;;;;;3.58;2.75;;;1.30;90.70;;;;;;5135201;27;20107;-32
2023/11/28 05:39:58;;;;;;;3.95;2.42;;;1.30;90.80;;;;;;5135166;27;20027;-32
2023/11/28 05:42:23;;;;;;;3.90;2.67;;;1.40;90.80;;;;;;5135065;27;20457;-32
2023/11/28 05:44:49;;;;;;;3.38;2.60;;;1.40;90.80;;;;;;5135116;27;20062;-33
2023/11/28 05:47:14;;;;;;;3.78;2.25;;;1.40;90.70;;;;;;5134939;27;20266;-32
2023/11/28 05:49:40;;;;;;;5.22;2.70;;;1.40;90.70;;;;;;5134965;27;20518;-32
2023/11/28 05:52:06;;;;;;;3.95;2.50;;;1.50;90.70;;;;;;5134940;27;20437;-32
2023/11/28 05:54:32;;;;;;;3.65;2.60;;;1.50;90.80;;;;;;5134966;27;20435;-32
2023/11/28 05:56:57;;;;;;;5.72;3.10;;;1.50;90.80;;;;;;5135021;27;20019;-32
2023/11/28 05:59:23;;;;;;;3.75;2.65;;;1.60;90.80;;;;;;5134748;27;20027;-33
2023/11/28 06:02:09;;;;;;;4.35;2.60;;;1.60;90.90;;;;;;5134626;27;20023;-33
2023/11/28 06:04:34;;;;;;;2.95;2.40;;;1.60;91.10;;;;;;5134295;27;20074;-32
2023/11/28 06:07:00;;;;;;;3.55;2.50;;;1.60;90.80;;;;;;5134524;27;20062;-32
2023/11/28 06:09:28;;;;;;;2.65;2.17;;;1.60;90.80;;;;;;5134468;27;20028;-33
2023/11/28 06:11:54;;;;;;;3.65;2.08;;;1.70;90.90;;;;;;5134516;27;20462;-33
2023/11/28 06:14:23;;;;;;;3.28;2.53;;;1.70;91.00;;;;;;5134444;27;20498;-33
2023/11/28 06:16:48;;;;;;;2.83;2.17;;;1.80;90.90;;;;;;5134810;27;20020;-34
2023/11/28 06:19:15;;;;;;;4.57;2.38;;;1.80;90.90;;;;;;5134228;27;20050;-34
2023/11/28 06:21:40;;;;;;;2.97;2.35;;;1.80;90.80;;;;;;5134736;27;20064;-33
2023/11/28 06:24:06;;;;;;;4.65;3.15;;;1.80;90.70;;;;;;5134040;27;20019;-32
2023/11/28 06:26:33;;;;;;;3.22;2.55;;;1.80;90.70;;;;;;5134348;27;20035;-32
2023/11/28 06:28:59;;;;;;;2.45;2.25;;;1.80;90.70;;;;;;5132693;27;20015;-32
2023/11/28 06:31:24;;;;;;;4.80;2.60;;;1.80;90.70;;;;;;5134166;27;20042;-32
2023/11/28 06:33:50;;;;;;;3.40;2.55;;;1.80;90.80;;;;;;5134073;27;20020;-33
2023/11/28 06:36:18;;;;;;;4.38;2.67;;;1.80;90.80;;;;;;5134012;27;20031;-32
2023/11/28 06:38:44;;;;;;;4.90;2.53;;;1.80;90.90;;;;;;5133619;27;20047;-33
2023/11/28 06:41:10;;;;;;;3.97;2.55;;;1.90;90.80;;;;;;5134319;27;20054;-33
2023/11/28 06:43:36;;;;;;;3.53;2.58;;;1.80;90.80;;;;;;5133814;27;20033;-32
2023/11/28 06:46:01;;;;;;;3.50;2.83;;;1.80;90.80;;;;;;5133892;27;20121;-33
2023/11/28 06:48:27;;;;;;;3.13;2.28;;;1.90;90.90;;;;;;5133321;27;20394;-33
2023/11/28 06:50:53;;;;;;;3.13;2.25;;;1.90;90.80;;;;;;5133653;27;20039;-34
2023/11/28 06:53:19;;;;;;;2.92;2.25;;;1.90;90.80;;;;;;5133712;27;20023;-34
2023/11/28 06:55:44;;;;;;;3.42;2.60;;;1.90;90.80;;;;;;5133783;27;20319;-33
2023/11/28 06:58:11;;;;;;;4.55;2.45;;;1.90;90.80;;;;;;5133484;27;20061;-33
2023/11/28 07:00:36;;;;;;;7.45;3.05;;;1.90;90.70;;;;;;5133650;27;20043;-33
2023/11/28 07:03:03;;;;;;;4.32;2.33;;;2.00;90.60;;;;;;5133344;27;20031;-33
2023/11/28 07:05:28;;;;;;;3.42;2.33;;;2.00;90.60;;;;;;5133440;27;20482;-34
2023/11/28 07:07:54;;;;;;;2.95;2.45;;;2.00;90.60;;;;;;5133169;27;20031;-33
2023/11/28 07:10:20;;;;;;;4.72;2.33;;;2.00;90.60;;;;;;5133679;27;20027;-32
2023/11/28 07:12:45;;;;;;;2.67;2.22;;;2.10;90.60;;;;;;5133283;27;20030;-31
2023/11/28 07:15:11;;;;;;;3.35;2.30;;;2.10;90.60;;;;;;5133323;27;20027;-34
2023/11/28 07:17:37;;;;;;;4.00;2.42;;;2.10;90.60;;;;;;5133008;27;20102;-33
2023/11/28 07:20:03;;;;;;;4.47;2.60;;;2.10;90.40;;;;;;5133227;27;20167;-32
2023/11/28 07:22:28;;;;;;;3.63;2.28;;;2.10;90.40;;;;;;5133404;27;20054;-35
2023/11/28 07:24:54;;;;;;;3.70;2.50;;;2.20;90.50;;;;;;5133292;27;20038;-34
2023/11/28 07:27:19;;;;;;;3.85;2.40;;;2.20;90.50;;;;;;5133113;27;20432;-33
2023/11/28 07:29:45;;;;;;;2.92;1.95;;;2.20;90.30;;;;;;5133070;27;20027;-34
2023/11/28 07:32:11;;;;;;;3.35;2.33;;;2.30;90.20;;;;;;5133466;27;20063;-32
2023/11/28 07:34:38;;;;;;;4.03;2.45;;;2.30;90.40;;;;;;5133078;27;20118;-34
2023/11/28 07:37:03;;;;;;;2.63;1.83;;;2.30;90.10;;;;;;5133079;27;20076;-34
2023/11/28 07:39:29;;;;;;;5.72;2.20;;;2.20;89.80;;;;;;5132996;27;20417;-33
2023/11/28 07:41:54;;;;;;;3.58;2.30;;;2.30;90.00;;;;;;5133135;27;20023;-34
2023/11/28 07:44:20;;;;;;;3.17;2.10;;;2.30;90.00;;;;;;5133098;27;20034;-33
2023/11/28 07:46:46;;;;;;;2.78;2.08;;;2.30;90.10;;;;;;5132931;27;20034;-33
2023/11/28 07:49:12;;;;;;;2.75;2.20;;;2.30;89.70;;;;;;5133129;27;20019;-34
2023/11/28 07:51:37;;;;;;;2.13;1.77;;;2.30;89.90;;;;;;5132897;27;20027;-33
2023/11/28 07:54:03;;;;;;;2.70;2.00;;;2.40;90.00;;;;;;5132587;27;20038;-34
2023/11/28 07:56:29;;;;;;;2.13;1.80;;;2.40;90.00;;;;;;5132829;27;20019;-33
2023/11/28 07:58:55;;;;;;;3.38;1.98;;;2.40;89.40;;;;;;5132467;27;20023;-33
2023/11/28 08:01:21;;;;;;;2.42;1.83;;;2.50;89.50;;;;;;5132659;27;20011;-33
2023/11/28 08:03:46;;;;;;;4.50;1.85;;;2.50;88.90;;;;;;5131469;27;20686;-33
2023/11/28 08:06:14;;;;;;;2.22;2.00;;;2.50;89.10;;;;;;5131527;27;20516;-33
2023/11/28 08:08:39;;;;;;;2.30;2.00;;;2.50;89.30;;;;;;5131084;27;20059;-33
2023/11/28 08:11:08;;;;;;;3.40;2.05;;;2.50;89.20;;;;;;5130018;27;20057;-32
2023/11/28 08:13:34;;;;;;;3.17;1.50;;;2.50;89.20;;;;;;5129825;27;20080;-32
2023/11/28 08:16:00;;;;;;;1.80;1.67;;;2.50;89.20;;;;;;5131322;27;20043;-32
2023/11/28 08:18:25;;;;;;;2.10;1.80;;;2.60;89.30;;;;;;5130726;27;20077;-33
2023/11/28 08:20:51;;;;;;;2.78;1.90;;;2.60;88.90;;;;;;5132608;27;20424;-33
2023/11/28 08:23:17;;;;;;;4.63;2.05;;;2.60;89.00;;;;;;5131035;28;20031;-32
2023/11/28 08:25:42;;;;;;;1.65;1.55;;;2.60;88.80;;;;;;5132470;27;20042;-34
2023/11/28 08:28:08;;;;;;;3.40;1.85;;;2.60;89.00;;;;;;5132439;27;20462;-32
2023/11/28 08:30:33;;;;;;;4.32;1.80;;;2.60;89.10;;;;;;5132326;27;20051;-33
2023/11/28 08:32:59;;;;;;;2.20;1.80;;;2.50;88.90;;;;;;5132479;27;20059;-35
2023/11/28 08:35:24;;;;;;;2.30;1.67;;;2.50;88.90;;;;;;5132261;27;20042;-32
2023/11/28 08:37:50;;;;;;;2.30;1.65;;;2.50;89.10;;;;;;5132029;27;20386;-33
2023/11/28 08:40:16;;;;;;;2.88;1.75;;;2.50;89.20;;;;;;5132493;27;20118;-31
2023/11/28 08:42:42;;;;;;;2.40;1.80;;;2.50;89.10;;;;;;5132074;27;20027;-33
2023/11/28 08:45:09;;;;;;;1.73;1.63;;;2.50;89.20;;;;;;5132490;27;20368;-34
2023/11/28 08:47:34;;;;;;;2.42;1.80;;;2.50;89.30;;;;;;5132007;27;20024;-33
2023/11/28 08:50:01;;;;;;;2.00;1.80;;;2.50;89.30;;;;;;5132154;27;20600;-34
2023/11/28 08:52:29;;;;;;;1.50;1.25;;;2.60;89.30;;;;;;5135653;27;20486;-32
2023/11/28 08:54:55;;;;;;;3.30;1.80;;;2.60;89.40;;;;;;5136054;27;20072;-33
2023/11/28 08:57:21;;;;;;;2.10;1.75;;;2.60;89.30;;;;;;5136317;27;20027;-34
2023/11/28 08:59:46;;;;;;;2.42;1.60;;;2.70;89.20;;;;;;5136039;27;20031;-34
2023/11/28 09:02:12;;;;;;;2.15;1.52;;;2.70;89.10;;;;;;5136394;27;20428;-34
2023/11/28 09:04:37;;;;;;;2.35;1.60;;;2.80;89.00;;;;;;5135834;27;20083;-33
2023/11/28 09:07:03;;;;;;;2.28;1.60;;;2.80;88.80;;;;;;5136305;27;20068;-34
2023/11/28 09:09:28;;;;;;;2.30;2.03;;;2.80;88.80;;;;;;5134270;27;20030;-34
2023/11/28 09:11:54;;;;;;;2.70;1.85;;;2.90;88.90;;;;;;5136304;27;20027;-33
2023/11/28 09:14:19;;;;;;;1.92;1.73;;;2.90;88.90;;;;;;5135447;27;20161;-34
2023/11/28 09:16:45;;;;;;;2.08;1.88;;;2.90;88.90;;;;;;5135840;27;20599;-40
2023/11/28 09:19:11;;;;;;;2.95;1.98;;;3.00;88.70;;;;;;5135514;27;20081;-33
2023/11/28 09:21:36;;;;;;;2.33;1.80;;;3.00;88.30;;;;;;5135987;27;20376;-33
2023/11/28 09:24:03;;;;;;;2.83;2.20;;;3.00;88.40;;;;;;5135621;27;20027;-33
2023/11/28 09:26:28;;;;;;;2.83;1.80;;;3.00;88.00;;;;;;5135938;27;20015;-33
2023/11/28 09:28:54;;;;;;;2.58;1.75;;;3.00;88.30;;;;;;5135142;27;20383;-31
2023/11/28 09:31:25;;;;;;;2.60;1.80;;;3.00;88.20;;;;;;5135504;27;20039;-34
2023/11/28 09:33:52;;;;;;;2.25;1.70;;;3.00;87.90;;;;;;5135688;27;20526;-36
2023/11/28 09:36:20;;;;;;;2.40;2.00;;;3.00;88.00;;;;;;5135523;27;20031;-33
2023/11/28 09:38:45;;;;;;;2.35;1.95;;;3.10;87.90;;;;;;5133829;27;20049;-33
2023/11/28 09:41:20;;;;;;;2.15;1.90;;;3.10;87.90;;;;;;5135577;27;20015;-34
2023/11/28 09:43:48;;;;;;;2.95;1.90;;;3.00;88.00;;;;;;5135217;27;20363;-34
2023/11/28 09:46:15;;;;;;;3.13;1.80;;;3.10;87.90;;;;;;5135615;27;20034;-33
2023/11/28 09:48:43;;;;;;;5.13;2.10;;;3.10;87.80;;;;;;5134827;27;20031;-34
2023/11/28 09:51:09;;;;;;;3.08;2.10;;;3.10;87.80;;;;;;5135068;27;20106;-34
2023/11/28 09:53:38;;;;;;;2.10;1.75;;;3.10;87.80;;;;;;5135182;27;20367;-33
2023/11/28 09:56:05;;;;;;;4.10;2.03;;;3.20;87.90;;;;;;5135040;27;20449;-34
2023/11/28 09:58:35;;;;;;;2.42;1.60;;;3.20;88.10;;;;;;5133484;27;20031;-34
2023/11/28 10:01:06;;;;;;;3.08;2.10;;;3.20;87.80;;;;;;5135284;27;20094;-35
2023/11/28 10:03:32;;;;;;;4.20;1.92;;;3.20;87.80;;;;;;5134582;27;20079;-33
2023/11/28 10:05:58;;;;;;;3.45;2.30;;;3.30;87.50;;;;;;5134636;27;20223;-33
2023/11/28 10:08:26;;;;;;;4.72;2.00;;;3.30;87.70;;;;;;5134806;27;20034;-33
2023/11/28 10:10:53;;;;;;;3.75;2.10;;;3.40;87.70;;;;;;5134914;27;20356;-34
2023/11/28 10:13:19;;;;;;;2.70;2.10;;;3.40;87.60;;;;;;5134638;27;20027;-34
2023/11/28 10:15:50;;;;;;;2.42;1.95;;;3.50;87.80;;;;;;5134883;27;20625;-34
2023/11/28 10:18:20;;;;;;;2.90;2.10;;;3.50;87.80;;;;;;5134619;27;20058;-37
2023/11/28 10:20:45;;;;;;;2.60;1.88;;;3.60;87.80;;;;;;5134541;27;20023;-33
2023/11/28 10:23:14;;;;;;;3.03;2.20;;;3.60;87.80;;;;;;5134475;27;20489;-34
2023/11/28 10:25:40;;;;;;;3.25;1.90;;;3.70;87.20;;;;;;5134526;27;20020;-33
2023/11/28 10:28:08;;;;;;;3.15;2.15;;;3.70;87.20;;;;;;5134230;27;20034;-32
2023/11/28 10:30:36;;;;;;;2.88;2.20;;;3.70;87.40;;;;;;5134441;27;20039;-32
2023/11/28 10:33:02;;;;;;;3.88;2.40;;;3.70;87.40;;;;;;5134376;27;20527;-33
2023/11/28 10:35:44;;;;;;;2.13;1.63;;;3.80;87.30;;;;;;5134220;27;20023;-34
2023/11/28 10:38:17;;;;;;;2.83;2.03;;;3.90;87.20;;;;;;5134355;27;20027;-32
2023/11/28 10:40:48;;;;;;;3.40;1.85;;;3.90;87.10;;;;;;5133961;27;20382;-33
2023/11/28 10:43:13;;;;;;;2.20;1.90;;;4.00;87.00;;;;;;5134036;27;20131;-32
2023/11/28 10:45:43;;;;;;;2.40;1.92;;;4.00;87.00;;;;;;5133917;27;20075;-33
2023/11/28 10:48:09;;;;;;;2.97;2.00;;;4.00;86.80;;;;;;5133809;27;20023;-31
2023/11/28 10:50:35;;;;;;;2.75;1.83;;;4.10;86.70;;;;;;5133912;27;20140;-32
2023/11/28 10:53:06;;;;;;;2.60;1.65;;;4.10;86.70;;;;;;5133945;27;20053;-33
2023/11/28 10:55:41;;;;;;;2.83;2.00;;;4.20;86.60;;;;;;5133673;27;20041;-33
2023/11/28 10:58:14;;;;;;;1.98;1.75;;;4.20;86.40;;;;;;5133803;27;20016;-33
2023/11/28 11:00:44;;;;;;;1.67;1.45;;;4.30;86.10;;;;;;5133502;27;20067;-32
2023/11/28 11:03:10;;;;;;;2.72;1.85;;;4.30;85.60;;;;;;5133649;27;20072;-33
2023/11/28 11:05:36;;;;;;;2.60;2.10;;;4.20;84.60;;;;;;5133401;27;20034;-33
2023/11/28 11:08:02;;;;;;;3.65;2.00;;;4.10;85.30;;;;;;5133673;27;20027;-33
2023/11/28 11:10:30;;;;;;;3.15;2.00;;;4.10;85.50;;;;;;5133713;27;20385;-33
2023/11/28 11:13:24;;;;;;;1.88;1.60;;;4.20;85.50;;;;;;5133501;27;20038;-33
2023/11/28 11:16:15;;;;;;;1.85;1.50;;;4.20;85.40;;;;;;5133478;27;20043;-33
2023/11/28 11:18:51;;;;;;;3.58;1.65;;;4.30;85.90;;;;;;5133357;27;20015;-33
2023/11/28 11:21:25;;;;;;;2.80;1.95;;;4.30;84.90;;;;;;5133637;27;20392;-34
2023/11/28 11:23:54;;;;;;;2.22;1.83;;;4.30;84.70;;;;;;5133327;27;20438;-33
2023/11/28 11:26:39;;;;;;;3.63;2.00;;;4.40;84.70;;;;;;5133365;27;20024;-33
2023/11/28 11:29:26;;;;;;;3.45;1.83;;;4.50;84.50;;;;;;5132907;27;20152;-33
2023/11/28 11:31:56;;;;;;;2.30;1.48;;;4.60;84.50;;;;;;5131777;27;20075;-34
2023/11/28 11:34:35;;;;;;;2.75;1.83;;;4.70;84.50;;;;;;5133027;27;20023;-34
2023/11/28 11:37:40;;;;;;;2.92;2.05;;;4.90;84.00;;;;;;5133007;27;20015;-34
2023/11/28 11:40:07;;;;;;;2.00;1.55;;;5.00;82.70;;;;;;5131013;27;20432;-34
2023/11/28 11:42:33;;;;;;;2.20;1.63;;;4.90;82.30;;;;;;5133517;27;20026;-34
2023/11/28 11:45:04;;;;;;;1.83;1.38;;;4.90;82.60;;;;;;5133249;27;20023;-34
2023/11/28 11:47:32;;;;;;;2.75;1.70;;;4.80;82.50;;;;;;5132852;27;20047;-32
2023/11/28 11:49:58;;;;;;;1.98;1.67;;;4.80;82.70;;;;;;5132411;27;20023;-33
2023/11/28 11:52:24;;;;;;;1.67;1.58;;;4.70;82.80;;;;;;5133181;27;20027;-33
2023/11/28 11:54:51;;;;;;;3.58;1.90;;;4.70;83.20;;;;;;5132959;27;20119;-32
2023/11/28 11:57:19;;;;;;;1.92;1.70;;;4.80;83.10;;;;;;5132711;27;20230;-33
2023/11/28 11:59:45;;;;;;;1.85;1.35;;;4.90;82.80;;;;;;5132563;27;20026;-33
2023/11/28 12:02:10;;;;;;;2.92;1.60;;;5.00;82.60;;;;;;5132884;27;20023;-33
2023/11/28 12:04:42;;;;;;;4.32;1.80;;;5.10;82.40;;;;;;5132723;27;20383;-32
2023/11/28 12:07:12;;;;;;;2.85;1.60;;;5.10;80.40;;;;;;5132800;27;20034;-33
2023/11/28 12:09:39;;;;;;;1.38;1.27;;;5.10;80.20;;;;;;5132267;27;20047;-33
2023/11/28 12:12:06;;;;;;;2.30;1.40;;;5.00;80.60;;;;;;5132843;27;20084;-34
2023/11/28 12:14:32;;;;;;;1.67;1.48;;;5.00;81.10;;;;;;5132759;27;20084;-34
2023/11/28 12:17:00;;;;;;;2.03;1.60;;;5.00;81.30;;;;;;5132385;27;20034;-34
2023/11/28 12:19:27;;;;;;;2.25;1.60;;;5.00;81.40;;;;;;5132836;27;20024;-33
2023/11/28 12:21:53;;;;;;;3.95;1.60;;;5.00;80.40;;;;;;5133033;27;20424;-32
2023/11/28 12:24:19;;;;;;;3.30;1.48;;;5.00;80.60;;;;;;5132553;27;20375;-32
2023/11/28 12:26:45;;;;;;;2.13;1.52;;;4.90;80.70;;;;;;5133731;27;20024;-33
2023/11/28 12:29:12;;;;;;;2.30;1.70;;;4.90;80.70;;;;;;5136487;27;20023;-33
2023/11/28 12:31:37;;;;;;;2.17;1.52;;;4.90;81.00;;;;;;5136687;27;20490;-32
2023/11/28 12:34:03;;;;;;;2.17;1.58;;;5.00;81.20;;;;;;5136692;27;20075;-35
2023/11/28 12:36:29;;;;;;;3.55;1.90;;;5.00;81.30;;;;;;5136906;27;20079;-34
2023/11/28 12:39:01;;;;;;;3.03;1.98;;;5.00;80.90;;;;;;5136171;27;20031;-34
2023/11/28 12:41:40;;;;;;;2.15;1.95;;;5.10;81.30;;;;;;5136910;27;20023;-32
2023/11/28 12:44:10;;;;;;;4.53;2.00;;;5.00;81.30;;;;;;5136032;27;20030;-33
2023/11/28 12:46:39;;;;;;;3.15;2.08;;;5.10;81.40;;;;;;5136296;27;20026;-32
2023/11/28 12:49:07;;;;;;;1.98;1.75;;;5.10;81.50;;;;;;5135646;27;20521;-34
2023/11/28 12:51:33;;;;;;;1.90;1.77;;;5.10;81.50;;;;;;5136731;27;20037;-35
2023/11/28 12:54:12;;;;;;;3.95;1.98;;;5.10;81.40;;;;;;5136110;27;20076;-33
2023/11/28 12:56:43;;;;;;;2.50;1.80;;;5.10;81.60;;;;;;5136353;27;20050;-34